Time;durP1;ratioP1;P1;durP2;ratioP2;P2;SDS_P1;SDS_P2;PMS_P1;PMS_P2;Temp;Humidity;BMP_temperature;BMP_pressure;BME280_temperature;BME280_humidity;BME280_pressure;Samples;Min_cycle;Max_cycle;Signal;HPM_P1;HPM_P2
2022/06/25 00:00:29;;;;;;;32.22;25.30;;;16.30;99.90;;;;;;5094696;28;20071;-67
2022/06/25 00:02:55;;;;;;;40.45;24.98;;;16.30;99.90;;;;;;5074707;28;20456;-67
2022/06/25 00:05:32;;;;;;;32.08;26.15;;;16.30;99.90;;;;;;5094713;28;20395;-67
2022/06/25 00:07:59;;;;;;;32.65;25.77;;;16.30;99.90;;;;;;5094560;28;20450;-66
2022/06/25 00:10:25;;;;;;;33.95;26.77;;;16.30;99.90;;;;;;5093672;28;20094;-68
2022/06/25 00:12:51;;;;;;;34.38;26.13;;;16.30;99.90;;;;;;5094462;28;20544;-66
2022/06/25 00:15:17;;;;;;;38.00;27.60;;;16.20;99.90;;;;;;5093595;28;20044;-66
2022/06/25 00:17:43;;;;;;;31.35;25.60;;;16.20;99.90;;;;;;5093351;28;20044;-67
2022/06/25 00:20:10;;;;;;;36.28;28.20;;;16.20;99.90;;;;;;5093460;28;20353;-67
2022/06/25 00:22:36;;;;;;;35.92;27.20;;;16.20;99.90;;;;;;5094311;28;20391;-67
2022/06/25 00:25:02;;;;;;;38.30;28.65;;;16.20;99.90;;;;;;5093049;28;20044;-67
2022/06/25 00:27:28;;;;;;;35.53;27.83;;;16.20;99.90;;;;;;5093194;28;20388;-66
2022/06/25 00:29:54;;;;;;;38.08;28.67;;;16.20;99.90;;;;;;5093229;28;20047;-66
2022/06/25 00:32:20;;;;;;;39.05;28.77;;;16.20;99.90;;;;;;5092094;28;20093;-66
2022/06/25 00:34:46;;;;;;;39.85;30.17;;;16.20;99.90;;;;;;5094074;28;20044;-67
2022/06/25 00:37:12;;;;;;;37.90;29.05;;;16.20;99.90;;;;;;5092729;28;20123;-67
2022/06/25 00:39:38;;;;;;;42.85;30.85;;;16.20;99.90;;;;;;5094286;28;20118;-67
2022/06/25 00:42:12;;;;;;;40.33;31.38;;;16.10;99.90;;;;;;5094226;28;20055;-67
2022/06/25 00:44:38;;;;;;;43.40;32.63;;;16.10;99.90;;;;;;5092569;28;20492;-68
2022/06/25 00:47:07;;;;;;;37.92;30.70;;;16.10;99.90;;;;;;5096623;28;20109;-67
2022/06/25 00:49:33;;;;;;;38.53;32.65;;;16.10;99.90;;;;;;5095753;28;20122;-67
2022/06/25 00:52:02;;;;;;;39.42;31.63;;;16.10;99.90;;;;;;5114120;28;20119;-66
2022/06/25 00:54:34;;;;;;;38.15;31.95;;;16.10;99.90;;;;;;5095848;28;20051;-67
2022/06/25 00:57:03;;;;;;;40.83;31.67;;;16.20;99.90;;;;;;5096132;28;20047;-67
2022/06/25 00:59:33;;;;;;;42.95;32.30;;;16.10;99.90;;;;;;5095896;28;20048;-68
2022/06/25 01:01:59;;;;;;;38.95;32.42;;;16.10;99.90;;;;;;5093858;28;20047;-68
2022/06/25 01:04:25;;;;;;;39.35;33.35;;;16.10;99.90;;;;;;5095740;28;20032;-69
2022/06/25 01:06:51;;;;;;;43.25;32.35;;;16.20;99.90;;;;;;5114068;28;20403;-67
2022/06/25 01:09:16;;;;;;;45.58;34.15;;;16.10;99.90;;;;;;5095824;28;20119;-67
2022/06/25 01:11:42;;;;;;;39.72;33.33;;;16.10;99.90;;;;;;5113817;28;20452;-67
2022/06/25 01:14:11;;;;;;;43.67;33.13;;;16.20;99.90;;;;;;5095261;28;20478;-66
2022/06/25 01:16:38;;;;;;;39.83;33.50;;;16.20;99.90;;;;;;5113760;28;20093;-68
2022/06/25 01:19:09;;;;;;;38.78;32.67;;;16.20;99.90;;;;;;5113854;28;20093;-66
2022/06/25 01:21:35;;;;;;;37.70;31.52;;;16.20;99.90;;;;;;5113598;28;20121;-66
2022/06/25 01:24:02;;;;;;;42.20;33.30;;;16.20;99.90;;;;;;5095436;28;20385;-67
2022/06/25 01:26:28;;;;;;;36.45;31.38;;;16.20;99.90;;;;;;5078556;28;20067;-67
2022/06/25 01:28:54;;;;;;;38.10;30.13;;;16.10;99.90;;;;;;5095236;28;20048;-69
2022/06/25 01:31:20;;;;;;;38.42;31.00;;;16.20;99.90;;;;;;5094037;28;20043;-67
2022/06/25 01:33:46;;;;;;;33.83;30.15;;;16.20;99.90;;;;;;5112574;28;20043;-68
2022/06/25 01:36:12;;;;;;;39.80;31.50;;;16.20;99.90;;;;;;5113629;28;20078;-68
2022/06/25 01:38:37;;;;;;;32.17;28.42;;;16.20;99.90;;;;;;5078494;28;20047;-67
2022/06/25 01:41:03;;;;;;;32.35;28.92;;;16.20;99.90;;;;;;5078402;28;20385;-69
2022/06/25 01:43:29;;;;;;;32.88;28.60;;;16.20;99.90;;;;;;5095371;28;20044;-67
2022/06/25 01:45:55;;;;;;;32.92;27.33;;;16.20;99.90;;;;;;5113292;28;20050;-67
2022/06/25 01:48:21;;;;;;;28.60;25.58;;;16.30;99.90;;;;;;5078173;28;20400;-69
2022/06/25 01:50:48;;;;;;;26.63;23.98;;;16.30;99.90;;;;;;5095161;28;20082;-68
2022/06/25 01:53:13;;;;;;;26.15;23.48;;;16.30;99.90;;;;;;5095044;28;20593;-74
2022/06/25 01:55:39;;;;;;;25.92;23.13;;;16.30;99.90;;;;;;5095104;28;20040;-71
2022/06/25 01:58:05;;;;;;;26.83;23.42;;;16.40;99.90;;;;;;5094998;28;20048;-70
2022/06/25 02:00:32;;;;;;;24.63;21.92;;;16.40;99.90;;;;;;5113182;28;20040;-68
2022/06/25 02:02:58;;;;;;;23.65;21.25;;;16.40;99.90;;;;;;5111055;28;20043;-69
2022/06/25 02:08:13;;;;;;;26.08;23.35;;;16.50;99.90;;;;;;5113192;28;20044;-69
2022/06/25 02:10:40;;;;;;;26.45;23.85;;;16.50;99.90;;;;;;5113244;28;20097;-69
2022/06/25 02:13:06;;;;;;;25.50;22.83;;;16.50;99.90;;;;;;5113154;28;20101;-68
2022/06/25 02:15:32;;;;;;;26.17;23.40;;;16.50;99.90;;;;;;5094789;28;20044;-75
2022/06/25 02:17:59;;;;;;;25.92;23.13;;;16.50;99.90;;;;;;5095209;28;20439;-69
2022/06/25 02:20:25;;;;;;;27.88;23.48;;;16.40;99.90;;;;;;5095082;28;20050;-72
2022/06/25 02:22:52;;;;;;;25.77;23.05;;;16.50;99.90;;;;;;5113123;28;20111;-71
2022/06/25 02:25:18;;;;;;;25.85;23.00;;;16.40;99.90;;;;;;5116568;28;20036;-68
2022/06/25 02:27:44;;;;;;;25.90;22.45;;;16.40;99.90;;;;;;5098725;28;20075;-71
2022/06/25 02:30:11;;;;;;;28.45;23.20;;;16.40;99.90;;;;;;5081705;28;20476;-68
2022/06/25 02:32:37;;;;;;;24.98;22.45;;;16.30;99.90;;;;;;5114964;28;20503;-70
2022/06/25 02:35:03;;;;;;;27.30;23.00;;;16.30;99.90;;;;;;5116888;28;20047;-73
2022/06/25 02:37:29;;;;;;;24.33;21.83;;;16.30;99.90;;;;;;5098760;28;20047;-67
2022/06/25 02:39:55;;;;;;;26.25;22.05;;;16.30;99.90;;;;;;5098455;28;20100;-69
2022/06/25 02:42:21;;;;;;;22.80;20.30;;;16.30;99.90;;;;;;5116831;28;20100;-73
2022/06/25 02:44:47;;;;;;;22.92;20.25;;;16.30;99.90;;;;;;5098402;28;20096;-69
2022/06/25 02:47:13;;;;;;;21.88;19.58;;;16.30;99.90;;;;;;5098290;28;20058;-72
2022/06/25 02:49:39;;;;;;;25.15;20.23;;;16.30;99.90;;;;;;5098365;28;20054;-74
2022/06/25 02:52:05;;;;;;;22.70;19.85;;;16.30;99.90;;;;;;5098386;28;20043;-72
2022/06/25 02:54:31;;;;;;;22.05;19.73;;;16.30;99.90;;;;;;5098201;28;20054;-74
2022/06/25 02:59:41;;;;;;;22.08;19.77;;;16.30;99.90;;;;;;5116491;28;20402;-66
2022/06/25 03:02:07;;;;;;;25.45;21.27;;;16.30;99.90;;;;;;5114362;28;20040;-71
2022/06/25 03:04:33;;;;;;;23.83;19.70;;;16.20;99.90;;;;;;5097860;28;20047;-71
2022/06/25 03:06:59;;;;;;;22.10;19.63;;;16.20;99.90;;;;;;5097955;28;20040;-72
2022/06/25 03:09:25;;;;;;;20.48;18.40;;;16.20;99.90;;;;;;5080844;28;20039;-72
2022/06/25 03:11:51;;;;;;;21.50;18.85;;;16.20;99.90;;;;;;5098129;28;20048;-73
2022/06/25 03:14:17;;;;;;;19.77;17.58;;;16.20;99.90;;;;;;5097802;28;20371;-73
2022/06/25 03:16:43;;;;;;;19.48;17.38;;;16.10;99.90;;;;;;5116167;28;20043;-69
2022/06/25 03:19:10;;;;;;;18.05;15.85;;;16.10;99.90;;;;;;5116135;28;20104;-72
2022/06/25 03:21:36;;;;;;;24.23;17.80;;;16.20;99.90;;;;;;5116098;28;20443;-70
2022/06/25 03:24:03;;;;;;;19.00;16.30;;;16.20;99.90;;;;;;5097695;28;20040;-66
2022/06/25 03:26:29;;;;;;;18.67;15.98;;;16.20;99.90;;;;;;5116377;28;20032;-75
2022/06/25 03:28:56;;;;;;;17.95;14.98;;;16.20;99.90;;;;;;5098008;28;20035;-73
2022/06/25 03:31:22;;;;;;;18.50;15.18;;;16.20;99.90;;;;;;5096841;28;20118;-77
2022/06/25 03:33:49;;;;;;;18.17;15.55;;;16.20;99.90;;;;;;5115161;28;20039;-77
2022/06/25 03:36:15;;;;;;;16.90;14.40;;;16.20;99.90;;;;;;5079939;28;20045;-78
2022/06/25 03:38:41;;;;;;;15.63;13.13;;;16.20;99.90;;;;;;5097769;28;20043;-71
2022/06/25 03:43:51;;;;;;;14.73;13.23;;;16.30;99.90;;;;;;5097595;28;20476;-69
2022/06/25 03:46:17;;;;;;;16.17;14.05;;;16.30;99.90;;;;;;5115364;28;20075;-74
2022/06/25 03:48:43;;;;;;;14.90;13.40;;;16.40;99.90;;;;;;5097224;28;20054;-72
2022/06/25 03:51:09;;;;;;;16.60;14.02;;;16.40;99.90;;;;;;5097273;28;20082;-69
2022/06/25 03:53:34;;;;;;;13.73;12.15;;;16.40;99.90;;;;;;5115654;28;20499;-69
2022/06/25 03:56:00;;;;;;;13.07;11.65;;;16.40;99.90;;;;;;5097091;28;20201;-75
2022/06/25 03:58:26;;;;;;;14.95;12.73;;;16.50;99.90;;;;;;5115501;28;20118;-67
2022/06/25 04:00:52;;;;;;;14.40;13.00;;;16.50;99.90;;;;;;5097223;28;20115;-73
2022/06/25 04:03:18;;;;;;;12.43;11.07;;;16.50;99.90;;;;;;5113090;28;20043;-68
2022/06/25 04:05:44;;;;;;;13.70;11.75;;;16.50;99.90;;;;;;5096812;28;20126;-72
2022/06/25 04:08:10;;;;;;;14.82;12.50;;;16.60;99.90;;;;;;5115228;28;20042;-73
2022/06/25 04:10:35;;;;;;;12.85;11.63;;;16.60;99.90;;;;;;5096754;28;20031;-76
2022/06/25 04:13:02;;;;;;;17.35;12.20;;;16.60;99.90;;;;;;5096720;28;20043;-69
2022/06/25 04:15:28;;;;;;;13.18;11.80;;;16.60;99.90;;;;;;5097027;28;20490;-71
2022/06/25 04:17:53;;;;;;;12.93;11.63;;;16.60;99.90;;;;;;5079817;28;20050;-75
2022/06/25 04:20:19;;;;;;;12.32;11.02;;;16.60;99.90;;;;;;5114858;28;20119;-70
2022/06/25 04:22:45;;;;;;;11.55;10.35;;;16.60;99.90;;;;;;5115136;28;20047;-67
2022/06/25 04:25:11;;;;;;;13.25;10.75;;;16.70;99.90;;;;;;5096559;28;20134;-75
2022/06/25 04:30:21;;;;;;;11.07;9.98;;;16.70;99.90;;;;;;5096592;28;20078;-71
2022/06/25 04:32:47;;;;;;;14.73;10.75;;;16.70;99.90;;;;;;5094592;28;20075;-68
2022/06/25 04:35:13;;;;;;;11.82;10.73;;;16.70;99.90;;;;;;5096231;28;20124;-72
2022/06/25 04:37:39;;;;;;;11.43;10.32;;;16.80;99.90;;;;;;5114384;28;20050;-69
2022/06/25 04:40:05;;;;;;;13.27;11.05;;;16.80;99.90;;;;;;5114645;28;20071;-68
2022/06/25 04:42:31;;;;;;;12.63;10.32;;;16.80;99.90;;;;;;5079426;28;20054;-71
2022/06/25 04:44:57;;;;;;;11.50;10.25;;;16.90;99.90;;;;;;5114291;28;20036;-71
2022/06/25 04:47:22;;;;;;;10.65;9.55;;;16.90;99.90;;;;;;5078175;28;20047;-65
2022/06/25 04:49:49;;;;;;;10.65;9.35;;;17.00;99.90;;;;;;5079242;28;20043;-69
2022/06/25 04:52:15;;;;;;;11.20;10.10;;;17.00;99.90;;;;;;5096350;28;20371;-69
2022/06/25 04:54:41;;;;;;;12.48;9.45;;;17.00;99.90;;;;;;5114429;28;20048;-69
2022/06/25 04:57:07;;;;;;;10.13;8.38;;;17.10;99.90;;;;;;5095773;28;20102;-74
2022/06/25 04:59:32;;;;;;;11.30;9.35;;;17.10;99.90;;;;;;5096070;28;20047;-68
2022/06/25 05:01:58;;;;;;;9.55;8.63;;;17.20;99.90;;;;;;5093522;28;20166;-69
2022/06/25 05:04:24;;;;;;;10.20;9.02;;;17.20;99.90;;;;;;5095629;28;20044;-69
2022/06/25 05:06:50;;;;;;;10.43;9.23;;;17.30;99.90;;;;;;5095749;28;20040;-69
2022/06/25 05:09:16;;;;;;;11.95;9.27;;;17.40;99.90;;;;;;5095749;28;20116;-69
2022/06/25 05:11:42;;;;;;;10.73;8.52;;;17.40;99.90;;;;;;5078650;28;20046;-68
2022/06/25 05:14:08;;;;;;;10.90;9.80;;;17.40;99.90;;;;;;5095761;28;20472;-71
2022/06/25 05:16:34;;;;;;;10.95;9.20;;;17.50;99.90;;;;;;5078847;28;20050;-70
2022/06/25 05:19:00;;;;;;;9.52;8.63;;;17.50;99.90;;;;;;5095555;28;20064;-67
2022/06/25 05:21:26;;;;;;;10.60;8.90;;;17.60;99.90;;;;;;5078547;28;20035;-68
2022/06/25 05:23:51;;;;;;;10.50;8.30;;;17.70;99.90;;;;;;5113865;28;20040;-68
2022/06/25 05:26:17;;;;;;;8.65;7.75;;;17.70;99.90;;;;;;5095257;28;20119;-70
2022/06/25 05:28:43;;;;;;;8.27;7.43;;;17.70;99.90;;;;;;5095373;28;20043;-73
2022/06/25 05:31:09;;;;;;;9.77;8.77;;;17.80;99.90;;;;;;5095366;28;20035;-69
2022/06/25 05:33:35;;;;;;;10.48;8.65;;;17.90;99.90;;;;;;5093085;28;20602;-68
2022/06/25 05:36:01;;;;;;;10.40;8.70;;;18.00;99.90;;;;;;5095270;28;20044;-65
2022/06/25 05:38:27;;;;;;;10.10;9.00;;;18.10;99.90;;;;;;5078371;28;20074;-66
2022/06/25 05:40:54;;;;;;;10.07;7.93;;;18.20;99.90;;;;;;5095093;28;20059;-68
2022/06/25 05:43:20;;;;;;;10.73;7.28;;;18.20;99.90;;;;;;5095190;28;20055;-65
2022/06/25 05:45:45;;;;;;;10.80;8.13;;;18.30;99.90;;;;;;5094890;28;20047;-69
2022/06/25 05:48:11;;;;;;;8.95;7.55;;;18.40;99.90;;;;;;5113148;28;20072;-72
2022/06/25 05:50:37;;;;;;;9.00;7.70;;;18.40;99.90;;;;;;5113545;28;20122;-69
2022/06/25 05:53:03;;;;;;;12.25;7.70;;;18.60;99.90;;;;;;5095069;28;20122;-70
2022/06/25 05:55:29;;;;;;;8.80;7.00;;;18.70;99.90;;;;;;5095270;28;20039;-73
2022/06/25 05:57:55;;;;;;;7.72;6.95;;;18.70;99.90;;;;;;5078215;28;20082;-70
2022/06/25 06:00:21;;;;;;;8.45;6.63;;;18.80;99.90;;;;;;5084468;28;20128;-67
2022/06/25 06:02:47;;;;;;;9.40;6.22;;;18.80;99.90;;;;;;5099756;28;20054;-69
2022/06/25 06:05:13;;;;;;;7.97;6.30;;;18.90;99.90;;;;;;5101624;28;20047;-70
2022/06/25 06:07:38;;;;;;;9.98;6.65;;;18.90;99.90;;;;;;5101706;28;20043;-66
2022/06/25 06:10:05;;;;;;;7.10;6.13;;;19.10;99.90;;;;;;5084932;28;20039;-68
2022/06/25 06:12:31;;;;;;;7.07;5.97;;;19.10;99.90;;;;;;5119812;28;20039;-68
2022/06/25 06:14:57;;;;;;;8.85;5.38;;;19.30;99.90;;;;;;5119830;28;20046;-66
2022/06/25 06:17:23;;;;;;;8.73;5.30;;;19.40;99.90;;;;;;5101402;28;20048;-66
2022/06/25 06:19:49;;;;;;;5.90;5.03;;;19.70;99.90;;;;;;5084634;28;20043;-71
2022/06/25 06:22:15;;;;;;;5.82;4.85;;;19.80;99.90;;;;;;5101413;28;20088;-69
2022/06/25 06:24:40;;;;;;;7.65;4.97;;;20.00;99.90;;;;;;5101357;28;20050;-66
2022/06/25 06:27:06;;;;;;;7.88;5.22;;;20.10;99.90;;;;;;5101407;28;20139;-71
2022/06/25 06:29:32;;;;;;;8.30;5.00;;;20.10;99.90;;;;;;5084507;28;20043;-67
2022/06/25 06:31:58;;;;;;;6.53;4.18;;;20.30;99.90;;;;;;5117377;28;20035;-65
2022/06/25 06:34:24;;;;;;;7.03;4.10;;;20.40;99.90;;;;;;5101408;28;20040;-68
2022/06/25 06:36:50;;;;;;;8.77;4.78;;;20.60;99.90;;;;;;5101261;28;20046;-66
2022/06/25 06:39:16;;;;;;;5.35;3.72;;;20.80;99.90;;;;;;5116962;28;20171;-67
2022/06/25 06:41:42;;;;;;;8.85;4.22;;;20.90;99.90;;;;;;5084426;28;20031;-69
2022/06/25 06:44:07;;;;;;;8.15;3.85;;;21.10;99.90;;;;;;5119443;28;20058;-65
2022/06/25 06:46:33;;;;;;;5.45;3.80;;;21.30;99.90;;;;;;5119536;28;20067;-68
2022/06/25 06:48:59;;;;;;;6.65;3.63;;;21.50;99.90;;;;;;5101162;28;20051;-68
2022/06/25 06:51:25;;;;;;;6.10;3.72;;;21.70;99.90;;;;;;5101190;28;20039;-66
2022/06/25 06:53:51;;;;;;;6.32;3.80;;;21.80;99.90;;;;;;5119664;28;20039;-69
2022/06/25 06:56:16;;;;;;;7.53;3.42;;;21.90;99.90;;;;;;5119616;28;20073;-67
2022/06/25 06:58:42;;;;;;;7.00;3.85;;;22.00;99.90;;;;;;5119380;28;20118;-72
2022/06/25 07:01:08;;;;;;;7.95;4.13;;;22.00;99.90;;;;;;5119635;28;20460;-69
2022/06/25 07:03:34;;;;;;;8.40;3.75;;;22.00;99.90;;;;;;5117494;28;20059;-69
2022/06/25 07:06:00;;;;;;;5.32;4.28;;;22.10;99.90;;;;;;5082792;28;20039;-69
2022/06/25 07:08:26;;;;;;;6.80;3.47;;;22.10;99.90;;;;;;5080649;28;20035;-67
2022/06/25 07:10:52;;;;;;;13.43;4.32;;;22.30;99.90;;;;;;5096122;28;20040;-68
2022/06/25 07:13:18;;;;;;;8.68;3.78;;;22.40;99.90;;;;;;5095450;28;20581;-68
2022/06/25 07:15:44;;;;;;;6.35;3.65;;;22.60;99.90;;;;;;5077607;28;20044;-66
2022/06/25 07:18:10;;;;;;;7.47;3.80;;;22.70;99.90;;;;;;5077669;28;20097;-66
2022/06/25 07:20:36;;;;;;;6.88;3.67;;;22.80;99.90;;;;;;5077459;28;20574;-69
2022/06/25 07:23:02;;;;;;;6.63;3.88;;;22.70;99.90;;;;;;5077622;28;20055;-64
2022/06/25 07:25:28;;;;;;;8.18;4.00;;;22.70;99.90;;;;;;5077449;28;20055;-71
2022/06/25 07:27:54;;;;;;;9.50;4.30;;;22.70;99.90;;;;;;5077219;28;20039;-71
2022/06/25 07:30:19;;;;;;;6.57;3.40;;;22.70;99.90;;;;;;5095604;28;20044;-69
2022/06/25 07:32:45;;;;;;;6.15;3.88;;;22.90;99.90;;;;;;5058503;28;20093;-71
2022/06/25 07:35:11;;;;;;;6.15;3.47;;;23.20;99.90;;;;;;5113275;28;20491;-68
2022/06/25 07:37:37;;;;;;;7.15;4.07;;;23.50;99.90;;;;;;5097410;28;20464;-70
2022/06/25 07:40:03;;;;;;;8.38;3.70;;;23.70;99.90;;;;;;5097650;28;20134;-73
2022/06/25 07:42:32;;;;;;;5.85;3.92;;;23.80;99.90;;;;;;5115417;28;20040;-71
2022/06/25 07:44:58;;;;;;;6.32;4.30;;;24.00;99.90;;;;;;5097445;28;20460;-73
2022/06/25 07:47:24;;;;;;;6.53;3.80;;;24.30;99.90;;;;;;5097287;28;20047;-72
2022/06/25 07:52:35;;;;;;;6.10;4.10;;;24.50;99.90;;;;;;5097248;28;20066;-70
2022/06/25 07:55:03;;;;;;;8.02;3.63;;;24.50;99.90;;;;;;5097035;28;20043;-69
2022/06/25 07:57:29;;;;;;;5.82;4.18;;;24.20;99.90;;;;;;5097184;28;20046;-69
2022/06/25 07:59:55;;;;;;;6.68;4.38;;;23.90;99.90;;;;;;5096878;28;20043;-69
2022/06/25 08:02:21;;;;;;;8.15;4.43;;;23.80;99.90;;;;;;5094976;28;20043;-67
2022/06/25 08:04:46;;;;;;;5.13;3.97;;;24.00;99.90;;;;;;5096710;28;20543;-68
2022/06/25 08:07:12;;;;;;;6.40;4.05;;;24.00;99.90;;;;;;5103399;28;20047;-65
2022/06/25 08:09:38;;;;;;;6.53;3.85;;;23.90;99.90;;;;;;5076646;28;20039;-68
2022/06/25 08:12:04;;;;;;;8.73;3.70;;;23.90;99.90;;;;;;5076715;28;20109;-68
2022/06/25 08:14:30;;;;;;;6.88;4.07;;;23.90;99.90;;;;;;5076503;28;20040;-70
2022/06/25 08:16:56;;;;;;;5.47;3.05;;;24.00;99.90;;;;;;5094583;28;20040;-68
2022/06/25 08:19:22;;;;;;;6.47;4.20;;;24.30;99.90;;;;;;5076550;28;20048;-68
2022/06/25 08:21:48;;;;;;;8.18;3.80;;;24.60;99.90;;;;;;5094302;28;20052;-68
2022/06/25 08:24:14;;;;;;;6.30;3.35;;;24.70;99.90;;;;;;5076180;28;20439;-70
2022/06/25 08:26:40;;;;;;;8.60;3.38;;;24.80;99.90;;;;;;5076037;28;20044;-69
2022/06/25 08:29:05;;;;;;;5.97;3.80;;;24.90;99.90;;;;;;5059290;28;20043;-69
2022/06/25 08:31:31;;;;;;;6.70;3.97;;;24.90;99.90;;;;;;5092910;28;20097;-68
2022/06/25 08:33:58;;;;;;;7.60;3.13;;;24.80;99.90;;;;;;5082543;28;20039;-73
2022/06/25 08:36:24;;;;;;;7.05;3.80;;;24.80;99.90;;;;;;5096126;28;20131;-68
2022/06/25 08:38:49;;;;;;;6.38;3.10;;;24.70;99.90;;;;;;5114459;28;20111;-68
2022/06/25 08:41:16;;;;;;;6.95;3.63;;;24.70;99.90;;;;;;5096278;28;20069;-66
2022/06/25 08:43:41;;;;;;;7.97;3.83;;;24.80;99.90;;;;;;5095986;28;20110;-69
2022/06/25 08:46:07;;;;;;;8.60;3.70;;;24.90;99.90;;;;;;5096032;28;20079;-67
2022/06/25 08:48:35;;;;;;;7.80;4.07;;;25.10;99.90;;;;;;5114020;28;20082;-67
2022/06/25 08:51:01;;;;;;;9.20;3.50;;;25.20;99.90;;;;;;5114373;28;20044;-70
2022/06/25 08:53:32;;;;;;;5.82;3.42;;;25.00;99.90;;;;;;5114120;28;20103;-71
2022/06/25 08:56:00;;;;;;;4.68;2.80;;;25.10;99.90;;;;;;5114124;28;20547;-68
2022/06/25 08:58:26;;;;;;;8.40;3.35;;;25.30;99.90;;;;;;5078864;28;20537;-67
2022/06/25 09:00:52;;;;;;;4.32;2.58;;;25.30;99.90;;;;;;5114091;28;20464;-66
2022/06/25 09:03:18;;;;;;;6.32;1.98;;;25.20;99.90;;;;;;5093825;28;20122;-67
2022/06/25 09:05:44;;;;;;;5.82;2.05;;;25.10;99.90;;;;;;5095633;28;20491;-71
2022/06/25 09:08:12;;;;;;;6.65;2.33;;;24.80;99.90;;;;;;5113793;28;20175;-68
2022/06/25 09:10:40;;;;;;;4.47;2.13;;;24.80;99.90;;;;;;5078570;28;20035;-70
2022/06/25 09:13:08;;;;;;;5.28;2.20;;;24.70;99.90;;;;;;5095489;28;20653;-72
2022/06/25 09:15:45;;;;;;;4.10;2.78;;;24.70;99.90;;;;;;5078534;28;20047;-70
2022/06/25 09:18:13;;;;;;;5.30;2.25;;;24.60;99.90;;;;;;5113137;28;20051;-72
2022/06/25 09:20:55;;;;;;;4.82;2.28;;;24.40;99.90;;;;;;5113296;28;20039;-70
2022/06/25 09:23:21;;;;;;;5.85;2.38;;;24.20;99.90;;;;;;5095370;28;20051;-70
2022/06/25 09:26:08;;;;;;;7.13;2.70;;;24.00;99.90;;;;;;5095101;28;20047;-68
2022/06/25 09:28:37;;;;;;;6.10;2.95;;;24.30;99.90;;;;;;5113575;28;20460;-69
2022/06/25 09:31:04;;;;;;;4.43;2.00;;;24.60;99.90;;;;;;5113444;28;20042;-71
2022/06/25 09:33:35;;;;;;;5.82;2.47;;;24.80;99.90;;;;;;5110949;28;20055;-72
2022/06/25 09:36:03;;;;;;;4.28;2.30;;;25.00;99.90;;;;;;5078476;28;20486;-69
2022/06/25 09:38:31;;;;;;;4.28;2.30;;;25.00;99.90;;;;;;5095215;28;20043;-67
2022/06/25 09:40:59;;;;;;;3.55;2.00;;;24.90;99.90;;;;;;5095060;28;20136;-66
2022/06/25 09:43:36;;;;;;;4.72;1.92;;;24.70;99.90;;;;;;5095174;28;20050;-71
2022/06/25 09:46:04;;;;;;;4.50;2.10;;;24.50;99.90;;;;;;5094875;28;20051;-69
2022/06/25 09:48:31;;;;;;;3.38;2.08;;;24.50;99.90;;;;;;5094788;28;20097;-68
2022/06/25 09:51:24;;;;;;;3.55;1.67;;;24.40;99.90;;;;;;5094913;28;20036;-65
2022/06/25 09:53:53;;;;;;;4.32;2.13;;;24.10;99.90;;;;;;5108721;28;20181;-66
2022/06/25 09:56:28;;;;;;;4.72;1.42;;;23.90;99.90;;;;;;5094856;28;20078;-65
2022/06/25 09:58:54;;;;;;;3.05;1.60;;;23.60;99.90;;;;;;5078023;28;20050;-67
2022/06/25 10:01:23;;;;;;;3.65;1.98;;;23.40;99.90;;;;;;5095077;28;20048;-68
2022/06/25 10:03:50;;;;;;;3.08;1.50;;;23.30;99.90;;;;;;5092845;28;20043;-68
2022/06/25 10:06:18;;;;;;;3.90;1.80;;;23.10;99.90;;;;;;5112937;28;20036;-68
2022/06/25 10:08:49;;;;;;;3.35;1.60;;;23.10;99.90;;;;;;5094665;28;20091;-65
2022/06/25 10:11:17;;;;;;;4.45;2.03;;;22.90;99.90;;;;;;5113160;28;20122;-66
2022/06/25 10:13:43;;;;;;;3.40;1.77;;;22.80;99.90;;;;;;5113277;28;20036;-69
2022/06/25 10:16:10;;;;;;;5.05;1.70;;;22.60;99.90;;;;;;5095055;28;20380;-68
2022/06/25 10:18:36;;;;;;;4.25;1.70;;;22.40;99.90;;;;;;5078099;28;20059;-66
2022/06/25 10:21:02;;;;;;;4.80;1.60;;;22.20;99.90;;;;;;5112991;28;20039;-66
2022/06/25 10:23:29;;;;;;;4.40;1.80;;;22.20;99.90;;;;;;5094860;28;20051;-67
2022/06/25 10:25:55;;;;;;;5.85;2.72;;;22.20;99.90;;;;;;5112788;28;20116;-65
2022/06/25 10:28:26;;;;;;;3.33;1.80;;;22.20;99.90;;;;;;5077943;28;20043;-66
2022/06/25 10:30:56;;;;;;;5.25;2.10;;;22.30;99.90;;;;;;5094964;28;20042;-67
2022/06/25 10:33:27;;;;;;;4.53;2.38;;;22.50;99.90;;;;;;5110769;28;20047;-69
2022/06/25 10:35:58;;;;;;;4.28;2.00;;;22.70;99.90;;;;;;5094858;28;20057;-66
2022/06/25 10:38:26;;;;;;;4.97;2.28;;;23.00;99.90;;;;;;5112862;28;20040;-67
2022/06/25 10:43:59;;;;;;;4.47;2.10;;;23.80;99.90;;;;;;5112799;28;20491;-68
2022/06/25 10:46:40;;;;;;;3.25;2.00;;;24.00;99.90;;;;;;5096473;28;20036;-69
2022/06/25 10:49:22;;;;;;;4.60;1.95;;;24.00;99.90;;;;;;5098135;28;20059;-68
2022/06/25 10:51:48;;;;;;;3.53;2.13;;;24.10;99.90;;;;;;5098619;28;20035;-69
2022/06/25 10:54:24;;;;;;;4.60;2.00;;;24.30;99.90;;;;;;5098491;28;20036;-70
2022/06/25 10:56:52;;;;;;;3.50;2.17;;;24.40;99.90;;;;;;5098488;28;20472;-69
2022/06/25 10:59:37;;;;;;;4.30;2.58;;;24.50;99.90;;;;;;5098556;28;20111;-68
2022/06/25 11:02:08;;;;;;;5.22;3.20;;;24.40;99.90;;;;;;5096260;28;20395;-67
2022/06/25 11:04:35;;;;;;;5.22;2.97;;;24.50;99.90;;;;;;5098052;28;20464;-68
2022/06/25 11:07:15;;;;;;;4.28;3.05;;;24.80;99.90;;;;;;5098137;28;20066;-67
2022/06/25 11:09:56;;;;;;;5.80;3.13;;;25.20;99.90;;;;;;5116259;28;20046;-71
2022/06/25 11:12:24;;;;;;;3.83;3.22;;;25.40;99.90;;;;;;5098209;28;20399;-69
2022/06/25 11:15:03;;;;;;;5.35;2.80;;;25.20;99.90;;;;;;5097983;28;20503;-70
2022/06/25 11:17:30;;;;;;;7.38;3.17;;;24.90;99.90;;;;;;5098024;28;20092;-71
2022/06/25 11:20:10;;;;;;;6.25;2.80;;;24.60;99.90;;;;;;5116500;28;20043;-70
2022/06/25 11:22:50;;;;;;;6.00;3.53;;;24.30;99.90;;;;;;5116054;28;20479;-71
2022/06/25 11:30:48;;;;;;;5.72;3.47;;;23.50;99.90;;;;;;5115870;28;20078;-69
2022/06/25 11:33:15;;;;;;;4.82;2.92;;;23.20;99.90;;;;;;5095421;28;20090;-69
2022/06/25 11:35:44;;;;;;;5.28;3.67;;;23.00;99.90;;;;;;5097852;28;20051;-69
2022/06/25 11:38:16;;;;;;;4.18;2.58;;;22.80;99.90;;;;;;5097497;28;20043;-70
2022/06/25 11:40:42;;;;;;;4.63;2.55;;;22.60;99.90;;;;;;5097440;28;20079;-69
2022/06/25 11:43:08;;;;;;;3.85;2.45;;;22.30;99.90;;;;;;5115795;28;20093;-70
2022/06/25 11:45:50;;;;;;;4.47;2.20;;;22.20;99.90;;;;;;5097452;28;20039;-71
2022/06/25 11:48:16;;;;;;;6.70;2.40;;;22.00;99.90;;;;;;5097058;28;20542;-70
2022/06/25 11:50:45;;;;;;;2.95;2.47;;;21.90;99.90;;;;;;5097448;28;20044;-71
2022/06/25 11:53:11;;;;;;;5.70;3.38;;;21.90;99.90;;;;;;5115482;28;20105;-71
2022/06/25 11:55:38;;;;;;;5.65;3.67;;;21.90;99.90;;;;;;5097260;28;20036;-71
2022/06/25 11:58:04;;;;;;;3.97;3.40;;;22.10;99.90;;;;;;5114503;28;20039;-69
2022/06/25 12:00:30;;;;;;;3.85;2.92;;;22.40;99.90;;;;;;5115309;28;20043;-72
2022/06/25 12:03:04;;;;;;;5.38;2.97;;;22.80;99.90;;;;;;5094715;28;20097;-71
2022/06/25 12:05:31;;;;;;;2.85;2.17;;;23.10;99.90;;;;;;5115006;28;20040;-70
2022/06/25 12:07:57;;;;;;;4.43;2.75;;;23.30;99.90;;;;;;5080052;28;20115;-68
2022/06/25 12:10:24;;;;;;;3.75;1.98;;;23.40;99.90;;;;;;5115019;28;20408;-74
2022/06/25 12:12:50;;;;;;;3.65;2.20;;;23.50;99.90;;;;;;5096328;28;20071;-69
2022/06/25 12:15:16;;;;;;;2.67;2.28;;;23.50;99.90;;;;;;5096469;28;20083;-73
2022/06/25 12:17:43;;;;;;;3.08;2.20;;;23.50;99.90;;;;;;5096624;28;20079;-71
2022/06/25 12:20:11;;;;;;;3.25;2.40;;;23.60;99.90;;;;;;5096582;28;20392;-73
2022/06/25 12:22:41;;;;;;;3.58;2.10;;;23.60;99.90;;;;;;5096481;28;20035;-66
2022/06/25 12:25:09;;;;;;;3.58;2.33;;;23.80;99.90;;;;;;5096675;28;20108;-70
2022/06/25 12:27:46;;;;;;;3.10;2.35;;;23.90;99.90;;;;;;5096280;28;20803;-70
2022/06/25 12:30:12;;;;;;;6.28;2.80;;;23.90;99.90;;;;;;5096354;28;20035;-71
2022/06/25 12:32:41;;;;;;;4.25;2.50;;;24.00;99.90;;;;;;5094322;28;20050;-71
2022/06/25 12:35:28;;;;;;;3.17;2.60;;;24.20;99.90;;;;;;5114716;28;20104;-71
2022/06/25 12:38:05;;;;;;;3.00;2.42;;;24.40;99.90;;;;;;5096312;28;20075;-71
2022/06/25 12:40:43;;;;;;;5.22;2.50;;;24.80;99.90;;;;;;5114437;28;20410;-72
2022/06/25 12:43:10;;;;;;;3.13;2.28;;;25.00;99.90;;;;;;5114275;28;20032;-70
2022/06/25 12:45:38;;;;;;;3.58;2.53;;;25.10;99.90;;;;;;5095928;28;20566;-73
2022/06/25 12:48:07;;;;;;;3.45;2.28;;;25.10;99.90;;;;;;5084980;28;20044;-70
2022/06/25 12:50:36;;;;;;;3.63;2.10;;;25.10;99.90;;;;;;5075779;28;20040;-69
2022/06/25 12:53:07;;;;;;;2.75;1.80;;;25.10;99.90;;;;;;5093790;28;20048;-70
2022/06/25 12:55:33;;;;;;;3.15;2.03;;;25.10;99.90;;;;;;5075879;28;20051;-68
2022/06/25 12:58:04;;;;;;;1.90;1.38;;;25.00;99.90;;;;;;5075477;28;20065;-68
2022/06/25 13:00:32;;;;;;;3.42;1.40;;;24.90;99.90;;;;;;5075792;28;20097;-69